TRT Heliport

TR-0147 · 伊斯坦布尔, 土耳其

罗盘
风向 的 风向 030° 直升机
风: 16 kt, 4 beaufort
0 ft 1.000 2.000 3.000 4.000 5.000
Cloud Cloud
FEW 2.000
METAR LTBA 251720Z 03016KT 9999 FEW020 19/14 Q1014 RMK RWY23 03011KT

METAR TRT Heliport - TR-0147

TRT Heliport是,土耳其中的直升机场。 该机场位于纬度41,05694和经度29,03181。 这个机场没有ICAO代码,我们使用TR-0147作为参考。 机场在Istanbul FIR中。

该航空气象观测是针对阿塔蒂尔克国际机场在2024年5月25日 20:20, 当地时间进行的。

机场观察

风向为030°,速度为16 kt。

可见度为10 km 或者更多。

有几云在2.000 ft的高度。 没有观察到天花板。

温度和风寒是19 °C。 露点为14 °C,相对湿度为73%。 海平面上的气压为1014 hPa (QNH)。

白天

今天,太阳从05:37升起,在20:24降落。 这适用于TRT Heliport,世界夏令时可能有所不同。 当地时间与世界标准时间之间的时差为+3 小时。 夏令时目前正在进行中。

公司介绍

我们没有关于这个机场的公司信息。

体会

到Vliegles.nl去找飞行课程,跳伞和其他飞行体验。 浏览页面,了解TRT Heliport附近所有可用的活动。 你也可以使用搜索功能来寻找你所在地附近的特定飞行课程、跳伞或其他飞行体验。

乌云

2.000 ft FEW 几云

温度 & 天气

温度 19 °C
露点 14 °C
相对湿度 73%
Kp-index 2 (0-9)

评论

RWY23 03011KT

白天

日出
05:38 (8:55)
中午
13:01
日落
20:25

小工具

你想在你的网站上有一个关于TRT Heliport的当前航空天气(METAR)的小部件吗?

显示HTML代码
报告变更